createdAt,value
2023-01-03T00:05:56.036Z,101395.25
2023-01-03T00:15:59.298Z,101394.44
2023-01-03T00:26:11.661Z,101398.78
2023-01-03T00:36:14.934Z,101403.22
2023-01-03T00:46:20.902Z,101413.59
2023-01-03T00:56:25.938Z,101415.56
2023-01-03T01:06:32.370Z,101417.94
2023-01-03T01:16:35.573Z,101425.75
2023-01-03T01:26:41.080Z,101431.09
2023-01-03T01:36:45.161Z,101424.16
2023-01-03T01:46:50.008Z,101414.59
2023-01-03T01:56:54.337Z,101418.97
2023-01-03T02:06:59.338Z,101426.72
2023-01-03T02:17:08.126Z,101429.28
2023-01-03T02:27:25.646Z,101425.75
2023-01-03T02:37:34.912Z,101420.44
2023-01-03T02:47:45.650Z,101438.72
2023-01-03T02:57:55.619Z,101433.34
2023-01-03T03:07:58.806Z,101442.09
2023-01-03T03:18:06.937Z,101434.19
2023-01-03T03:28:30.016Z,101419.34
2023-01-03T03:38:36.479Z,101430.53
2023-01-03T03:49:01.627Z,101436.59
2023-01-03T03:59:07.881Z,101433.84
2023-01-03T04:09:11.705Z,101432.59
2023-01-03T04:19:16.229Z,101438.16
2023-01-03T04:29:19.359Z,101448.75
2023-01-03T04:39:24.476Z,101452.69
2023-01-03T04:49:27.796Z,101452.69
2023-01-03T04:59:32.276Z,101454.91
2023-01-03T05:09:35.449Z,101461.72
2023-01-03T05:20:00.262Z,101472.06
2023-01-03T05:30:03.531Z,101480.44
2023-01-03T05:40:11.318Z,101509.81
2023-01-03T05:50:14.601Z,101507.13
2023-01-03T06:00:23.400Z,101521.78
2023-01-03T06:10:31.810Z,101506.81
2023-01-03T06:20:36.456Z,101515.22
2023-01-03T06:30:39.763Z,101523.41
2023-01-03T06:40:49.894Z,101533.62
2023-01-03T06:51:10.519Z,101534.59
2023-01-03T07:01:15.830Z,101545.81
2023-01-03T07:11:19.059Z,101564.63
2023-01-03T07:21:23.782Z,101571.09
2023-01-03T07:31:27.367Z,101584.03
2023-01-03T07:41:45.776Z,101586.03
2023-01-03T07:51:48.930Z,101598.63
2023-01-03T08:01:53.479Z,101597.62
2023-01-03T08:12:14.017Z,101621.47
2023-01-03T08:22:18.899Z,101629.53
2023-01-03T08:32:22.341Z,101637.72
2023-01-03T08:42:27.048Z,101645.66
2023-01-03T08:52:35.262Z,101643.00
2023-01-03T09:02:41.397Z,101652.88
2023-01-03T09:12:44.683Z,101661.81
2023-01-03T09:22:49.236Z,101664.69
2023-01-03T09:32:52.595Z,101656.75
2023-01-03T09:43:21.417Z,101663.03
2023-01-03T09:53:50.126Z,101669.72
2023-01-03T10:04:05.525Z,101652.28
2023-01-03T10:14:18.343Z,101647.34
2023-01-03T10:24:24.960Z,101650.25
2023-01-03T10:34:28.047Z,101650.75
2023-01-03T10:44:33.820Z,101640.56
2023-01-03T10:54:48.172Z,101635.50
2023-01-03T11:05:12.563Z,101624.88
2023-01-03T11:15:18.453Z,101613.37
2023-01-03T11:25:34.808Z,101602.00
2023-01-03T11:35:54.671Z,101608.16
2023-01-03T11:46:18.826Z,101610.09
2023-01-03T11:56:28.147Z,101597.88
2023-01-03T12:06:37.650Z,101593.47
2023-01-03T12:16:45.878Z,101595.41
2023-01-03T12:26:56.384Z,101594.56
2023-01-03T12:37:08.463Z,101589.81
2023-01-03T12:47:21.865Z,101582.22
2023-01-03T12:57:55.308Z,101590.78
2023-01-03T13:08:06.760Z,101594.66
2023-01-03T13:18:33.713Z,101590.44
2023-01-03T13:28:38.734Z,101589.50
2023-01-03T13:38:42.127Z,101592.84
2023-01-03T13:48:56.764Z,101607.00
2023-01-03T13:59:10.553Z,101605.94
2023-01-03T14:09:27.978Z,101593.84
2023-01-03T14:19:34.006Z,101607.06
2023-01-03T14:29:40.120Z,101613.09
2023-01-03T14:39:53.403Z,101624.56
2023-01-03T14:50:04.135Z,101628.03
2023-01-03T15:00:09.431Z,101629.59
2023-01-03T15:10:22.425Z,101625.12
2023-01-03T15:20:32.285Z,101637.41
2023-01-03T15:30:48.148Z,101647.47
2023-01-03T15:40:51.984Z,101654.16
2023-01-03T15:50:57.074Z,101672.31
2023-01-03T16:01:01.109Z,101675.66
2023-01-03T16:11:07.519Z,101681.06
2023-01-03T16:21:11.063Z,101699.34
2023-01-03T16:31:18.665Z,101710.22
2023-01-03T16:41:22.002Z,101716.53
2023-01-03T16:51:28.623Z,101722.66
2023-01-03T17:01:31.848Z,101738.41
2023-01-03T17:11:36.491Z,101745.34
2023-01-03T17:21:39.687Z,101755.56
2023-01-03T17:31:44.215Z,101764.69
2023-01-03T17:42:04.829Z,101769.28
2023-01-03T17:52:15.496Z,101765.87
2023-01-03T18:02:21.430Z,101784.19
2023-01-03T18:12:26.807Z,101785.16
2023-01-03T18:22:29.968Z,101807.41
2023-01-03T18:32:35.781Z,101803.19
2023-01-03T18:42:59.128Z,101810.88
2023-01-03T18:53:05.164Z,101795.19
2023-01-03T19:03:21.167Z,101789.63
2023-01-03T19:13:27.956Z,101793.91
2023-01-03T19:23:31.509Z,101795.72
2023-01-03T19:33:36.987Z,101790.56
2023-01-03T19:43:40.142Z,101799.56
2023-01-03T19:53:44.630Z,101799.31
2023-01-03T20:03:49.400Z,101806.03
2023-01-03T20:13:54.122Z,101815.00
2023-01-03T20:23:59.681Z,101815.91
2023-01-03T20:34:06.404Z,101818.28
2023-01-03T20:44:11.181Z,101818.38
2023-01-03T20:54:15.640Z,101813.66
2023-01-03T21:04:18.833Z,101807.84
2023-01-03T21:14:23.385Z,101790.78
2023-01-03T21:24:26.748Z,101796.06
2023-01-03T21:34:32.379Z,101811.97
2023-01-03T21:44:35.775Z,101817.34
2023-01-03T21:54:40.496Z,101810.16
2023-01-03T22:04:43.606Z,101831.84
2023-01-03T22:14:48.760Z,101818.84
2023-01-03T22:24:52.008Z,101837.19
2023-01-03T22:34:56.546Z,101834.47
2023-01-03T22:44:59.617Z,101840.47
2023-01-03T22:55:04.416Z,101851.91
2023-01-03T23:05:08.219Z,101838.38
2023-01-03T23:15:13.139Z,101838.44
2023-01-03T23:25:16.412Z,101834.81
2023-01-03T23:35:21.020Z,101829.72
2023-01-03T23:45:24.082Z,101819.78
2023-01-03T23:55:28.815Z,101818.12
